CYWA

Petawawa Airport

Petawawa, Ontario, Canada
TAF CYWA 162330Z 1700/1712 VRB03KT P6SM FEW020 SCT060 TEMPO 1700/1702 5SM -SHRA BR BKN020 OVC060 FM170200 VRB03KT 6SM BR SCT060 TEMPO 1702/1705 2SM BR FM170500 12005KT 6SM BR SCT015 BKN060 TEMPO 1705/1710 2SM -SHRA BR BKN015 OVC060 PROB30 1705/1708 VRB15G30KT 1SM +TSRA BR BKN008 OVC050CB FM171000 30008KT P6SM FEW060 RMK FCST BASED ON AUTO OBS 170000-171000Z. NXT FCST BY 170600Z
Issued Valid From Valid To
Jul-16 @ 23:30 UTC
(56 minutes ago)
Jul-17 @ 00:00 UTC
(26 minutes ago)
Jul-17 @ 12:00 UTC
(in 12 hours)
Jul-17 @ 00:00 to Jul-17 @ 02:00
TAF CYWA 162330Z 1700/1712 VRB03KT P6SM FEW020 SCT060
Wind Visibility Clouds
Variable at 3 knots Greater than 6 miles
  • Few at 2,000' AGL
  • Scattered at 6,000' AGL
Temporary Jul-17 @ 00:00 to Jul-17 @ 02:00
TEMPO 1700/1702 5SM -SHRA BR BKN020 OVC060
Visibility Clouds Conditions
5 miles
  • Broken at 2,000' AGL
  • Overcast at 6,000' AGL
  • Light Rain
  • Mist
From Jul-17 @ 02:00 to Jul-17 @ 05:00
FM170200 VRB03KT 6SM BR SCT060
Wind Visibility Clouds Conditions
Variable at 3 knots 6 miles
  • Scattered at 6,000' AGL
  • Mist
Temporary Jul-17 @ 02:00 to Jul-17 @ 05:00
TEMPO 1702/1705 2SM BR
Visibility Conditions
2 miles
  • Mist
Probable  (Probability 30%) Jul-17 @ 05:00 to Jul-17 @ 08:00
PROB30 1705/1708 VRB15G30KT 1SM +TSRA BR BKN008 OVC050CB
Wind Visibility Clouds Conditions
Variable at 15 knots
 Gusting to 30 knots
1 miles
  • Broken at 800' AGL
  • Overcast at 5,000' AGL
  • Heavy Thunderstorm
  • Heavy Rain
  • Mist
From Jul-17 @ 05:00 to Jul-17 @ 10:00
FM170500 12005KT 6SM BR SCT015 BKN060
Wind Visibility Clouds Conditions
120° at 5 knots 6 miles
  • Scattered at 1,500' AGL
  • Broken at 6,000' AGL
  • Mist
Temporary Jul-17 @ 05:00 to Jul-17 @ 10:00
TEMPO 1705/1710 2SM -SHRA BR BKN015 OVC060
Visibility Clouds Conditions
2 miles
  • Broken at 1,500' AGL
  • Overcast at 6,000' AGL
  • Light Rain
  • Mist
From Jul-17 @ 10:00 to Jul-17 @ 12:00
FM171000 30008KT P6SM FEW060 RMK FCST BASED ON AUTO OBS 170000-171000Z. NXT FCST BY 170600Z
Wind Visibility Clouds
300° at 8 knots Greater than 6 miles
  • Few at 6,000' AGL
TAF CYWA 162330Z 1700/1712 VRB03KT P6SM FEW020 SCT060 TEMPO 1700/1702 5SM -SHRA BR BKN020 OVC060 FM170200 VRB03KT 6SM BR SCT060 TEMPO 1702/1705 2SM BR FM170500 12005KT 6SM BR SCT015 BKN060 TEMPO 1705/1710 2SM -SHRA BR BKN015 OVC060 PROB30 1705/1708 VRB15G30KT 1SM +TSRA BR BKN008 OVC050CB FM171000 30008KT P6SM FEW060 RMK FCST BASED ON AUTO OBS 170000-171000Z. NXT FCST BY 170600Z
Issued Jul-16 @ 23:30 UTC
(56 minutes ago)
Valid From Jul-17 @ 00:00 UTC
(26 minutes ago)
Valid To Jul-17 @ 12:00 UTC
(in 12 hours)
Jul-17 @ 00:00 - Jul-17 @ 02:00
Wind Visibility
Variable at 3 knots Greater than 6 miles
Clouds
  • Few at 2,000' AGL
  • Scattered at 6,000' AGL
Temporary Jul-17 @ 00:00 - Jul-17 @ 02:00
Clouds
  • Broken at 2,000' AGL
  • Overcast at 6,000' AGL
Conditions
  • Light Rain
  • Mist
From Jul-17 @ 02:00 - Jul-17 @ 05:00
Wind Visibility
Variable at 3 knots 6 miles
Clouds
  • Scattered at 6,000' AGL
Conditions
  • Mist
Temporary Jul-17 @ 02:00 - Jul-17 @ 05:00
Conditions
  • Mist
Probability 30% Probable Jul-17 @ 05:00 - Jul-17 @ 08:00
Wind Visibility
Variable at 15 knots
 Gusting to 30 knots
1 miles
Clouds
  • Broken at 800' AGL
  • Overcast at 5,000' AGL
Conditions
  • Heavy Thunderstorm
  • Heavy Rain
  • Mist
From Jul-17 @ 05:00 - Jul-17 @ 10:00
Wind Visibility
120° at 5 knots 6 miles
Clouds
  • Scattered at 1,500' AGL
  • Broken at 6,000' AGL
Conditions
  • Mist
Temporary Jul-17 @ 05:00 - Jul-17 @ 10:00
Clouds
  • Broken at 1,500' AGL
  • Overcast at 6,000' AGL
Conditions
  • Light Rain
  • Mist
From Jul-17 @ 10:00 - Jul-17 @ 12:00
Wind Visibility
300° at 8 knots Greater than 6 miles
Clouds
  • Few at 6,000' AGL